Flight Track Log - Related Links

Times and Time Zones

All times are in EDT time to prevent confusion due to time zone crossing. See the RPA3159 flight status page for this flight to view local times or setup timezone preferences in your user account.

Time Position Orientation Groundspeed Altitude Reporting Facility
EDT Latitude Longitude Course Direction KTS MPH feet Rate Location/Type
Sat 11:41:00 AM 44.2016 -73.2500 180° South  Level FlightAware Approximate
Sat 11:41:27 AM 44.3550 -73.1600 195° South 201 231 5,100  Level Boston Center
Sat 11:42:00 AM 44.1127 -73.2828 195° South  Level FlightAware Approximate
Sat 11:42:27 AM 44.2881 -73.1883 197° South 237 273 8,500  Level Boston Center
Sat 11:43:00 AM 44.0234 -73.3144 194° South  Level FlightAware Approximate
Sat 11:43:27 AM 44.2169 -73.2164 196° South 263 303 11,100  Level Boston Center
Sat 11:44:00 AM 43.9339 -73.3443 193° South  Level FlightAware Approximate
Sat 11:44:27 AM 44.1439 -73.2472 197° South 289 333 13,700  Level Boston Center
Sat 11:45:00 AM 43.8449 -73.3770 195° South  Level FlightAware Approximate
Sat 11:45:27 AM 44.0644 -73.2781 196° South 298 343 16,400  Level Boston Center
Sat 11:46:00 AM 43.7560 -73.4104 195° South  Level FlightAware Approximate
Sat 11:46:27 AM 43.9828 -73.3258 203° Southwest 309 356 19,200  Level Boston Center
Sat 11:47:00 AM 43.6671 -73.4436 195° South  Level FlightAware Approximate
Sat 11:47:27 AM 43.9094 -73.3939 214° Southwest 321 369 21,300  Level Boston Center
Sat 11:48:39 AM 43.8339 -73.4647 214° Southwest 329 379 23,600 2,045 Climbing Boston Center
Sat 11:49:39 AM 43.7308 -73.5578 213° Southwest 340 391 25,800 1,200 Climbing Boston Center
Sat 11:50:39 AM 43.6531 -73.6308 214° Southwest 340 391 26,000 100 Climbing Boston Center
Sat 11:51:39 AM 43.5878 -73.6897 213° Southwest 346 398 26,000  Level Boston Center
Sat 11:52:39 AM 43.4950 -73.7767 214° Southwest 346 398 26,000  Level Boston Center
Sat 11:53:39 AM 43.4169 -73.8492 214° Southwest 346 398 26,000  Level Boston Center
Sat 11:54:39 AM 43.3369 -73.9189 212° Southwest 346 398 26,000  Level Boston Center
Sat 11:55:39 AM 43.2569 -73.9908 213° Southwest 346 398 26,000  Level Boston Center
Sat 11:56:39 AM 43.1786 -74.0658 215° Southwest 351 404 26,000  Level Boston Center
Sat 11:57:39 AM 43.1006 -74.1350 213° Southwest 351 404 26,000  Level Boston Center
Sat 11:58:39 AM 43.0244 -74.2067 215° Southwest 351 404 26,000  Level Boston Center
Sat 11:59:39 AM 42.9419 -74.2781 212° Southwest 351 404 26,000  Level Boston Center
Sat 12:00:39 PM 42.8636 -74.3522 215° Southwest 351 404 26,000  Level Boston Center
Sat 12:01:39 PM 42.7811 -74.4258 213° Southwest 351 404 26,000  Level Boston Center
Sat 12:02:39 PM 42.7028 -74.4942 213° Southwest 351 404 26,000  Level Boston Center
Sat 12:03:39 PM 42.6244 -74.5647 214° Southwest 351 404 26,000  Level Boston Center
Sat 12:04:39 PM 42.5458 -74.6356 214° Southwest 351 404 26,000  Level Boston Center
Sat 12:05:39 PM 42.4653 -74.7058 213° Southwest 346 398 26,000 -106 Level Boston Center
Sat 12:07:29 PM 42.3244 -74.8292 213° Southwest 346 398 25,700 -632 Descending New York Center
Sat 12:08:30 PM 42.2450 -74.9000 213° Southwest 346 398 24,200 -1,475 Descending New York Center
Sat 12:09:31 PM 42.1697 -74.9681 214° Southwest 340 391 22,700 -1,361 Descending New York Center
Sat 12:10:29 PM 42.1011 -75.0250 212° Southwest 335 386 21,500 -1,373 Descending New York Center
Sat 12:11:29 PM 42.0261 -75.0872 212° Southwest 330 380 20,000 -1,230 Descending New York Center
Sat 12:12:31 PM 41.9444 -75.1544 211° Southwest 330 380 19,000 -504 Descending New York Center
Sat 12:13:28 PM 41.8781 -75.2056 210° Southwest 324 373 19,000  Level New York Center
Sat 12:14:29 PM 41.8028 -75.2675 212° Southwest 324 373 19,000 -49 Level New York Center
Sat 12:15:30 PM 41.7211 -75.3342 211° Southwest 324 373 18,900 -1,033 Descending New York Center
Sat 12:16:31 PM 41.6461 -75.3928 210° Southwest 324 373 16,900 -1,866 Descending New York Center
Sat 12:17:29 PM 41.5772 -75.4492 211° Southwest 319 367 15,200 -1,765 Descending New York Center
Sat 12:18:30 PM 41.5128 -75.5000 211° Southwest 313 360 13,400 -1,650 Descending New York Center
Sat 12:19:29 PM 41.4331 -75.5636 211° Southwest 308 354 11,900 -756 Descending New York Center
Sat 12:20:29 PM 41.3619 -75.6192 210° Southwest 308 354 11,900 -298 Level New York Center
Sat 12:21:30 PM 41.2975 -75.6728 212° Southwest 308 354 11,300 -893 Descending New York Center
Sat 12:22:30 PM 41.2111 -75.6911 189° South 283 326 10,100 -706 Descending New York Center
Sat 12:23:29 PM 41.1392 -75.6722 169° South 283 326 9,900 -98 Descending New York Center
Sat 12:24:32 PM 41.0547 -75.6442 166° South 298 343 9,900 49 Level New York Center
Sat 12:25:31 PM 40.9747 -75.6164 165° South 304 350 10,000 51 Climbing New York Center
Sat 12:26:29 PM 40.8822 -75.5850 166° South 304 350 10,000  Level New York Center
Sat 12:27:31 PM 40.8022 -75.5547 164° South 304 350 10,000  Level New York Center
Sat 12:28:29 PM 40.7242 -75.5272 165° South 304 350 10,000  Level New York Center
Sat 12:29:30 PM 40.6439 -75.5000 166° South 297 342 10,000  Level New York Center
Sat 12:30:30 PM 40.5639 -75.4725 165° South 297 342 10,000  Level New York Center
Sat 12:31:32 PM 40.4836 -75.4453 166° South 297 342 10,000 -101 Level New York Center
Sat 12:32:29 PM 40.4119 -75.4103 160° South 291 335 9,800 -1,026 Descending New York Center
Sat 12:33:29 PM 40.3511 -75.3681 152° Southeast 278 320 8,000 -1,800 Descending New York Center
Sat 12:34:29 PM 40.2864 -75.3175 149° Southeast 273 314 6,200 -992 Descending New York Center
Sat 12:35:30 PM 40.2217 -75.2672 149° Southeast 273 314 6,000 -99 Descending New York Center
Sat 12:36:30 PM 40.1467 -75.2081 149° Southeast 278 320 6,000  Level New York Center
Sat 12:37:31 PM 40.0881 -75.1636 150° Southeast 278 320 6,000  Level New York Center
Sat 12:37:46 PM 40.0667 -75.1333 133° Southeast 270 311 6,000  Level Philadelphia TRACON
Sat 12:38:46 PM 40.0167 -75.1000 153° Southeast 194 223 6,000 -400 Level Philadelphia TRACON
Sat 12:39:46 PM 40.0000 -75.0167 105° East 249 287 5,200 -1,043 Descending Philadelphia TRACON
Sat 12:40:41 PM 39.9833 -74.9667 113° Southeast 197 227 4,000 -694 Descending Philadelphia TRACON
Sat 12:41:47 PM 39.9333 -74.9833 194° South 169 194 3,800 -476 Descending Philadelphia TRACON
Sat 12:42:47 PM 39.9167 -75.0333 247° West 143 165 3,000 -850 Descending Philadelphia TRACON
Sat 12:43:47 PM 39.9000 -75.0833 247° West 157 181 2,100 -800 Descending Philadelphia TRACON
Sat 12:44:47 PM 39.9000 -75.1333 270° West 136 157 1,400 -700 Descending Philadelphia TRACON

Login

Don't have an account? Register now (free) for customized features, flight alerts, and more!